Latest Coastal Weather Observations for Charles Point

IDD60701

Issued at 6:51 pm CST Saturday 29 April 2017 (issued every 10 minutes, with the page automatically refreshed every 10 minutes)

About coastal observations | Map of coastal stations | Coastal observations for NT | Marine services | Other Formats
Station Details ID: 014031 Name: CHARLES POINT Lat: -12.39 Lon: 130.63 Height: 14.0 m
Data from the previous 72 hours. | See also: Recent months for locations in Northern Territory
Date/Time
CST
Temp
°C
Wind Pressure Rain since
9am
mm
Weather Cloud Vis
km
Sea
Height
m
Swell
Dir  Spd
kts
Gust
kts
hPa Trend Height
m
Period
s
Dir
29/06:30pm 28.3 NE 9 12 1012.3 - 0.0 - - - - - - -
29/06:00pm 28.7 NE 11 15 1012.0 - 0.0 - - - - - - -
29/05:30pm 28.9 NE 12 15 1011.6 - 0.0 - - - - - - -
29/05:00pm 29.4 NE 11 15 1011.2 - 0.0 - - - - - - -
29/04:30pm 29.7 NE 10 14 1010.9 - 0.0 - - - - - - -
29/04:00pm 30.3 NE 8 11 1010.5 - 0.0 - - - - - - -
29/03:30pm 30.5 NE 7 10 1010.6 - 0.0 - - - - - - -
29/03:00pm 30.4 NE 7 11 1010.6 - 0.0 - - - - - - -
29/02:30pm 31.3 ENE 6 9 1010.9 - 0.0 - - - - - - -
29/02:00pm 31.1 ENE 6 11 1011.1 - 0.0 - - - - - - -
29/01:30pm 30.8 ENE 6 12 1011.4 - 0.0 - - - - - - -
29/01:00pm 30.0 E 7 12 1011.9 - 0.0 - - - - - - -
29/12:30pm 30.1 E 7 11 1012.4 - 0.0 - - - - - - -
29/12:00pm 29.6 E 6 11 1012.9 - 0.0 - - - - - - -
29/11:30am 29.2 ESE 7 12 1013.3 - 0.0 - - - - - - -
29/11:00am 28.5 ESE 8 13 1013.8 - 0.0 - - - - - - -
29/10:30am 28.1 ESE 8 15 1013.7 - 0.0 - - - - - - -
29/10:00am 27.2 ESE 8 15 1013.6 - 0.0 - - - - - - -
29/09:30am 26.8 ESE 6 12 1013.4 - 0.0 - - - - - - -
29/09:00am 26.6 ESE 8 14 1013.2 - 0.4 - - - - - - -
29/08:30am 26.2 ESE 8 17 1012.8 - 0.4 - - - - - - -
29/08:00am 25.3 ESE 6 13 1012.4 - 0.4 - - - - - - -
29/07:30am 24.0 ESE 5 8 1012.3 - 0.4 - - - - - - -
29/07:00am 23.3 SE 4 7 1011.7 - 0.4 - - - - - - -
29/06:30am 23.5 SE 5 8 1011.9 - 0.4 - - - - - - -
29/06:00am 24.1 SE 5 8 1011.4 - 0.4 - - - - - - -
29/05:30am 24.3 SE 6 9 1011.0 - 0.4 - - - - - - -
29/05:00am 24.2 SE 6 9 1010.9 - 0.4 - - - - - - -
29/04:30am 24.2 SE 5 9 1011.2 - 0.4 - - - - - - -
29/04:00am 24.5 SE 4 8 1011.4 - 0.4 - - - - - - -
29/03:30am 24.6 SE 5 8 1011.3 - 0.4 - - - - - - -
29/03:00am 24.6 SE 4 7 1011.5 - 0.4 - - - - - - -
29/02:30am 24.7 SSE 3 5 1011.7 - 0.4 - - - - - - -
29/02:00am 24.4 SSE 4 6 1011.7 - 0.4 - - - - - - -
29/01:30am 23.7 S 3 4 1011.7 - 0.4 - - - - - - -
29/01:00am 24.0 SSW 3 5 1011.8 - 0.4 - - - - - - -
29/12:30am 24.7 S 3 5 1012.1 - 0.4 - - - - - - -
29/12:00am 24.8 S 6 8 1012.0 - 0.4 - - - - - - -
 
Date/Time
CST
Temp
°C
Wind Pressure Rain since
9am
mm
Weather Cloud Vis
km
Sea
Height
m
Swell
Dir  Spd
kts
Gust
kts
hPa Trend Height
m
Period
s
Dir
28/11:30pm 24.4 S 5 7 1012.7 - 0.4 - - - - - - -
28/11:00pm 24.7 S 4 5 1013.0 - 0.4 - - - - - - -
28/10:30pm 24.7 S 4 5 1013.3 - 0.4 - - - - - - -
28/10:00pm 24.8 S 4 5 1013.5 - 0.4 - - - - - - -
28/09:30pm 24.4 S 4 5 1013.6 - 0.4 - - - - - - -
28/09:00pm 24.5 SSE 4 5 1013.6 - 0.4 - - - - - - -
28/08:30pm 24.4 SE 3 4 1013.3 - 0.4 - - - - - - -
28/08:00pm 24.0 ESE 3 4 1012.9 - 0.4 - - - - - - -
28/07:30pm 24.0 E 1 2 1012.5 - 0.4 - - - - - - -
28/07:00pm 24.9 E 2 3 1012.0 - 0.4 - - - - - - -
28/06:30pm 25.5 SE 2 4 1011.9 - 0.4 - - - - - - -
28/06:00pm 25.5 ESE 3 4 1011.5 - 0.4 - - - - - - -
28/05:30pm 25.6 SE 2 3 1011.5 - 0.4 - - - - - - -
28/05:00pm 26.3 ESE 3 8 1011.1 - 0.4 - - - - - - -
28/04:30pm 27.1 ESE 4 7 1011.0 - 0.4 - - - - - - -
28/04:00pm 27.4 ESE 6 10 1010.8 - 0.4 - - - - - - -
28/03:30pm 27.0 ESE 3 5 1010.7 - 0.4 - - - - - - -
28/03:00pm 27.7 ESE 4 8 1010.8 - 0.4 - - - - - - -
28/02:30pm 26.7 SE 3 7 1011.0 - 0.4 - - - - - - -
28/02:00pm 26.6 ESE 4 8 1011.4 - 0.4 - - - - - - -
28/01:30pm 26.6 SE 5 9 1011.6 - 0.4 - - - - - - -
28/01:00pm 26.5 ESE 6 12 1011.8 - 0.4 - - - - - - -
28/12:30pm 26.6 ESE 5 10 1012.7 - 0.4 - - - - - - -
28/12:00pm 26.2 ESE 6 14 1012.7 - 0.4 - - - - - - -
28/11:30am 26.1 SE 5 9 1013.4 - 0.4 - - - - - - -
28/11:00am 25.6 SE 5 9 1013.4 - 0.4 - - - - - - -
28/10:30am 25.2 SE 7 12 1013.0 - 0.4 - - - - - - -
28/10:00am 24.9 ESE 8 12 1012.7 - 0.4 - - - - - - -
28/09:30am 24.6 ESE 7 12 1013.1 - 0.0 - - - - - - -
28/09:00am 24.9 SE 4 7 1013.5 - 16.4 - - - - - - -
28/08:30am 25.3 ESE 6 11 1013.0 - 16.4 - - - - - - -
28/08:00am 25.7 ESE 6 12 1012.1 - 16.4 - - - - - - -
28/07:30am 26.1 ESE 10 16 1011.8 - 16.4 - - - - - - -
28/07:00am 26.1 E 9 17 1011.5 - 16.4 - - - - - - -
28/06:30am 25.9 E 8 17 1011.4 - 16.4 - - - - - - -
28/06:00am 25.9 ESE 8 14 1011.3 - 16.4 - - - - - - -
28/05:30am 25.5 ESE 6 11 1010.8 - 16.4 - - - - - - -
28/05:00am 25.6 ESE 9 15 1010.7 - 16.4 - - - - - - -
28/04:30am 25.7 ESE 8 15 1010.4 - 16.4 - - - - - - -
28/04:00am 25.2 ESE 6 11 1010.6 - 16.4 - - - - - - -
28/03:30am 24.9 ESE 7 11 1010.3 - 16.4 - - - - - - -
28/03:00am 24.9 ESE 5 10 1010.6 - 16.4 - - - - - - -
28/02:30am 24.7 ESE 6 9 1010.8 - 16.4 - - - - - - -
28/02:00am 24.3 ESE 5 9 1010.7 - 16.4 - - - - - - -
28/01:30am 24.1 ESE 6 11 1010.5 - 16.4 - - - - - - -
28/01:00am 24.3 SE 6 11 1010.5 - 16.4 - - - - - - -
28/12:30am 24.6 ESE 7 11 1011.1 - 16.0 - - - - - - -
28/12:00am 25.1 ESE 10 16 1011.2 - 15.6 - - - - - - -
 
Date/Time
CST
Temp
°C
Wind Pressure Rain since
9am
mm
Weather Cloud Vis
km
Sea
Height
m
Swell
Dir  Spd
kts
Gust
kts
hPa Trend Height
m
Period
s
Dir
27/11:30pm 25.1 ESE 10 18 1011.4 - 15.6 - - - - - - -
27/11:00pm 25.4 ESE 8 17 1011.2 - 15.6 - - - - - - -
27/10:30pm 25.5 ESE 9 18 1011.4 - 15.4 - - - - - - -
27/10:00pm 25.5 ESE 11 19 1011.3 - 15.4 - - - - - - -
27/09:30pm 25.4 ESE 9 16 1011.3 - 15.4 - - - - - - -
27/09:00pm 25.7 ESE 11 20 1011.1 - 15.4 - - - - - - -
27/08:30pm 25.7 ESE 13 22 1010.5 - 15.4 - - - - - - -
27/08:00pm 25.6 ESE 13 23 1010.6 - 15.4 - - - - - - -
27/07:30pm 25.0 ESE 8 17 1010.0 - 15.4 - - - - - - -
27/07:00pm 24.4 SE 5 8 1009.7 - 15.2 - - - - - - -
27/06:30pm 24.3 SSE 5 8 1009.7 - 15.0 - - - - - - -
27/06:00pm 24.6 SE 5 9 1009.6 - 14.8 Recent precip. - - - - - -
27/05:30pm 24.6 ESE 4 6 1009.3 - 13.8 - - - - - - -
27/05:00pm 24.6 ESE 5 8 1008.8 - 13.2 - - - - - - -
27/04:30pm 24.5 ESE 6 11 1008.5 - 12.6 - - - - - - -
27/04:00pm 24.3 SE 4 6 1008.5 - 12.0 - - - - - - -
27/03:30pm 24.3 SSE 4 5 1008.4 - 8.8 - - - - - - -
27/03:00pm 24.5 SSE 4 6 1008.5 - 7.2 Rain - - - - - -
27/02:30pm 24.7 SE 4 7 1009.4 - 5.0 - - - - - - -
27/02:00pm 24.6 SE 3 4 1009.2 - 4.0 - - - - - - -
27/01:30pm 24.4 SSE 3 5 1009.4 - 3.6 - - - - - - -
27/01:00pm 24.1 SSE 4 7 1009.7 - 3.2 - - - - - - -
27/12:30pm 24.0 S 4 6 1010.1 - 1.8 - - - - - - -
27/12:00pm 23.9 SSE 5 9 1010.5 - 1.8 Rain - - - - - -
27/11:30am 24.0 SSE 3 6 1011.4 - 0.8 - - - - - - -
27/11:00am 23.8 SSE 3 6 1011.5 - 0.6 - - - - - - -
27/10:30am 23.9 S 3 6 1011.7 - 0.6 - - - - - - -
27/10:00am 25.4 SE 5 11 1012.3 - 0.0 - - - - - - -
27/09:30am 25.8 SE 7 13 1011.2 - 0.0 - - - - - - -
27/09:00am 26.1 SE 6 11 1011.5 - 0.0 - - - - - - -
27/08:30am 26.3 SE 9 17 1010.9 - 0.0 - - - - - - -
27/08:00am 26.2 SE 8 14 1010.3 - 0.0 - - - - - - -
27/07:30am 26.2 SE 7 13 1010.3 - 0.0 - - - - - - -
27/07:00am 26.2 SE 8 15 1009.8 - 0.0 - - - - - - -
27/06:30am 26.0 SE 7 15 1009.5 - 0.0 - - - - - - -
27/06:00am 25.3 SE 5 9 1009.2 - 0.0 - - - - - - -
27/05:30am 25.0 SE 4 7 1008.9 - 0.0 - - - - - - -
27/05:00am 24.9 SE 5 8 1009.1 - 0.0 - - - - - - -
27/04:30am 24.9 ESE 6 10 1009.3 - 0.0 - - - - - - -
27/04:00am 25.6 SE 5 9 1009.1 - 0.0 - - - - - - -
27/03:30am 25.8 ESE 5 9 1009.4 - 0.0 - - - - - - -
27/03:00am 26.1 ESE 6 8 1009.6 - 0.0 - - - - - - -
27/02:30am 26.2 ESE 5 7 1009.5 - 0.0 - - - - - - -
27/02:00am 27.1 ESE 6 11 1009.5 - 0.0 - - - - - - -
27/01:30am 27.2 ESE 7 11 1009.8 - 0.0 - - - - - - -
27/01:00am 27.3 ESE 7 13 1009.8 - 0.0 - - - - - - -
27/12:30am 27.4 ESE 6 12 1009.8 - 0.0 - - - - - - -
27/12:00am 27.5 ESE 5 8 1010.1 - 0.0 - - - - - - -
 
Date/Time
CST
Temp
°C
Wind Pressure Rain since
9am
mm
Weather Cloud Vis
km
Sea
Height
m
Swell
Dir  Spd
kts
Gust
kts
hPa Trend Height
m
Period
s
Dir
26/11:30pm 27.6 ESE 4 9 1010.1 - 0.0 - - - - - - -
26/11:00pm 27.5 ESE 4 8 1010.1 - 0.0 - - - - - - -
26/10:30pm 27.0 SE 3 5 1010.0 - 0.0 - - - - - - -
26/10:00pm 26.8 ESE 3 6 1009.8 - 0.0 - - - - - - -
26/09:30pm 26.9 SE 3 5 1009.7 - 0.0 - - - - - - -
26/09:00pm 27.4 SE 3 5 1009.6 - 0.0 - - - - - - -
26/08:30pm 27.5 SE 3 5 1009.6 - 0.0 - - - - - - -
26/08:00pm 27.9 ESE 3 5 1009.6 - 0.0 - - - - - - -
26/07:30pm 28.2 ESE 4 7 1009.6 - 0.0 - - - - - - -
26/07:00pm 28.4 E 4 7 1009.5 - 0.0 - - - - - - -

Other Formats:

Comma delimited format used in spreadsheet applications
http://www.bom.gov.au/fwo/IDD60701/IDD60701.99510.axf

JavaScript Object Notation format (JSON) in row-major order
http://www.bom.gov.au/fwo/IDD60701/IDD60701.99510.json